KEKN/EKN METAR and TAF weather

Enter ICAO airport designator
Station Type Date Time Source
KEKN METAR 2019/08/25 17:51 UTC NOAA

KEKN 251751Z AUTO 10007KT 030V140 10SM SCT050 23/10 A3020 RMK AO2 SLP222 T02280100 10233 20106 58013


Station Type Date Time Source
KEKN Decoded METAR 2019/08/25 17:51 UTC NOAA

Station name not available
Aug 25, 2019 - 01:51 PM EDT / 2019.08.25 1751 UTC
Wind: from the E (100 degrees) at 8 MPH (7 KT) (direction variable):0
Visibility: 10 mile(s):0
Sky conditions: partly cloudy
Temperature: 73.0 F (22.8 C)
Dew Point: 50.0 F (10.0 C)
Relative Humidity: 44%
Pressure (altimeter): 30.2 in. Hg (1022 hPa)
Pressure tendency: 0.04 inches (1.3 hPa) lower than three hours ago
ob: KEKN 251751Z AUTO 10007KT 030V140 10SM SCT050 23/10 A3020 RMK AO2 SLP222 T02280100 10233 20106 58013
cycle: 18

Station Type Date Time Source
KEKN TAF 2019/08/25 18:36 UTC NOAA

TAF KEKN 251733Z 2518/2618 12008KT P6SM SCT050
FM260000 15005KT P6SM SCT250
FM261500 16009KT P6SM SCT200

Example: see airport list